Time,TemperatureF,DewpointF,PressureIn,WindDirection,WindDirectionDegrees,WindSpeedMPH,WindSpeedGustMPH,Humidity,HourlyPrecipIn,Conditions,Clouds,dailyrainin,SoftwareType,DateUTC
2013-01-02 00:02:00,10.0,8.0,30.16,North,0,0.0,0.0,92,61.20,,,-99.99,,2013-01-02 06:02:00,
2013-01-02 00:12:00,10.0,8.0,30.16,North,0,0.0,0.0,92,61.20,,,-99.99,,2013-01-02 06:12:00,
2013-01-02 00:22:00,10.0,8.0,30.15,North,0,0.0,0.0,93,61.20,,,-99.99,,2013-01-02 06:22:00,
2013-01-02 00:32:00,9.0,7.0,30.15,North,0,0.0,0.0,93,61.20,,,-99.99,,2013-01-02 06:32:00,
2013-01-02 00:42:00,9.0,7.0,30.15,North,0,0.0,0.0,93,61.20,,,-99.99,,2013-01-02 06:42:00,
2013-01-02 00:52:00,9.0,8.0,30.15,North,0,0.0,0.0,94,61.20,,,-99.99,,2013-01-02 06:52:00,
2013-01-02 01:02:00,9.0,8.0,30.16,North,0,0.0,0.0,94,61.20,,,-99.99,,2013-01-02 07:02:00,
2013-01-02 01:12:00,9.0,8.0,30.16,North,0,0.0,0.0,94,61.20,,,-99.99,,2013-01-02 07:12:00,
2013-01-02 01:22:00,9.0,8.0,30.15,North,0,0.0,0.0,94,61.20,,,-99.99,,2013-01-02 07:22:00,
2013-01-02 01:32:00,8.0,7.0,30.15,North,0,0.0,0.0,95,61.20,,,-99.99,,2013-01-02 07:32:00,
2013-01-02 01:42:00,8.0,7.0,30.15,North,0,0.0,0.0,95,61.20,,,-99.99,,2013-01-02 07:42:00,
2013-01-02 01:52:00,8.0,7.0,30.17,North,0,0.0,0.0,95,61.20,,,-99.99,,2013-01-02 07:52:00,
2013-01-02 02:02:00,8.0,7.0,30.17,North,0,0.0,0.0,95,61.20,,,-99.99,,2013-01-02 08:02:00,
2013-01-02 02:11:00,8.0,7.0,30.17,North,0,0.0,0.0,95,61.20,,,-99.99,,2013-01-02 08:11:00,
2013-01-02 02:22:00,8.0,7.0,30.18,North,0,0.0,0.0,95,61.20,,,-99.99,,2013-01-02 08:22:00,
2013-01-02 02:32:00,7.0,6.0,30.18,North,0,0.0,0.0,95,61.20,,,-99.99,,2013-01-02 08:32:00,
2013-01-02 02:42:00,7.0,6.0,30.18,North,0,0.0,0.0,95,61.20,,,-99.99,,2013-01-02 08:42:00,
2013-01-02 02:52:00,7.0,6.0,30.18,North,0,0.0,0.0,95,61.20,,,-99.99,,2013-01-02 08:52:00,
2013-01-02 03:02:00,7.0,6.0,30.19,North,0,0.0,0.0,95,61.20,,,-99.99,,2013-01-02 09:02:00,
2013-01-02 03:12:00,7.0,6.0,30.19,North,0,0.0,0.0,95,61.20,,,-99.99,,2013-01-02 09:12:00,
2013-01-02 03:22:00,6.0,5.0,30.19,North,0,0.0,0.0,95,61.20,,,-99.99,,2013-01-02 09:22:00,
2013-01-02 03:32:00,6.0,5.0,30.19,North,0,0.0,0.0,95,61.20,,,-99.99,,2013-01-02 09:32:00,
2013-01-02 03:43:00,6.0,5.0,30.19,North,0,0.0,0.0,95,61.20,,,-99.99,,2013-01-02 09:43:00,
2013-01-02 03:52:00,7.0,6.0,30.19,North,0,0.0,0.0,95,61.20,,,-99.99,,2013-01-02 09:52:00,
2013-01-02 04:02:00,7.0,6.0,30.18,North,0,0.0,0.0,95,61.20,,,-99.99,,2013-01-02 10:02:00,
2013-01-02 04:12:00,7.0,6.0,30.18,North,0,0.0,0.0,95,61.20,,,-99.99,,2013-01-02 10:12:00,
2013-01-02 04:22:00,7.0,6.0,30.18,North,0,0.0,0.0,95,61.20,,,-99.99,,2013-01-02 10:22:00,
2013-01-02 04:32:00,7.0,6.0,30.18,North,0,0.0,0.0,94,61.20,,,-99.99,,2013-01-02 10:32:00,
2013-01-02 04:42:00,7.0,6.0,30.18,North,0,0.0,0.0,94,61.20,,,-99.99,,2013-01-02 10:42:00,
2013-01-02 04:52:00,6.0,5.0,30.16,North,0,0.0,0.0,95,61.20,,,-99.99,,2013-01-02 10:52:00,
2013-01-02 05:02:00,6.0,5.0,30.16,North,0,0.0,0.0,95,61.20,,,-99.99,,2013-01-02 11:02:00,
2013-01-02 05:12:00,6.0,5.0,30.16,North,0,0.0,0.0,95,61.20,,,-99.99,,2013-01-02 11:12:00,
2013-01-02 05:22:00,6.0,5.0,30.16,North,0,0.0,0.0,95,61.20,,,-99.99,,2013-01-02 11:22:00,
2013-01-02 05:32:00,5.0,4.0,30.16,North,0,0.0,0.0,95,61.20,,,-99.99,,2013-01-02 11:32:00,
2013-01-02 05:42:00,5.0,4.0,30.16,North,0,0.0,0.0,95,61.20,,,-99.99,,2013-01-02 11:42:00,
2013-01-02 05:53:00,5.0,-99.9,30.16,North,0,-999.0,0.0,0,61.20,,,-99.99,,2013-01-02 11:53:00,
2013-01-02 06:02:00,5.0,4.0,30.17,North,0,0.0,0.0,95,61.20,,,-99.99,,2013-01-02 12:02:00,
2013-01-02 06:12:00,5.0,4.0,30.17,North,0,0.0,0.0,95,61.20,,,-99.99,,2013-01-02 12:12:00,
2013-01-02 06:22:00,4.0,3.0,30.17,North,0,0.0,0.0,95,61.20,,,-99.99,,2013-01-02 12:22:00,
2013-01-02 06:32:00,4.0,3.0,30.17,North,0,0.0,0.0,95,61.20,,,-99.99,,2013-01-02 12:32:00,
2013-01-02 06:42:00,4.0,3.0,30.17,North,0,0.0,0.0,95,61.20,,,-99.99,,2013-01-02 12:42:00,
2013-01-02 06:52:00,4.0,3.0,30.19,North,0,0.0,0.0,96,61.20,,,-99.99,,2013-01-02 12:52:00,
2013-01-02 07:02:00,4.0,3.0,30.19,North,0,0.0,0.0,96,61.20,,,-99.99,,2013-01-02 13:02:00,
2013-01-02 07:12:00,4.0,3.0,30.19,North,0,0.0,0.0,96,61.20,,,-99.99,,2013-01-02 13:12:00,
2013-01-02 07:22:00,4.0,3.0,30.19,North,0,0.0,0.0,96,61.20,,,-99.99,,2013-01-02 13:22:00,
2013-01-02 07:32:00,5.0,4.0,30.19,North,0,0.0,0.0,96,61.20,,,-99.99,,2013-01-02 13:32:00,
2013-01-02 07:42:00,5.0,4.0,30.19,North,0,0.0,0.0,96,61.20,,,-99.99,,2013-01-02 13:42:00,
2013-01-02 07:52:00,5.0,4.0,30.19,North,0,0.0,0.0,96,61.20,,,-99.99,,2013-01-02 13:52:00,
2013-01-02 08:02:00,5.0,4.0,30.20,North,0,0.0,0.0,96,61.20,,,-99.99,,2013-01-02 14:02:00,
2013-01-02 08:12:00,5.0,4.0,30.20,North,0,0.0,0.0,96,61.20,,,-99.99,,2013-01-02 14:12:00,
2013-01-02 08:22:00,7.0,6.0,30.19,North,0,0.0,0.0,96,61.20,,,-99.99,,2013-01-02 14:22:00,
2013-01-02 08:33:00,8.0,7.0,30.21,North,0,0.0,0.0,95,61.20,,,-99.99,,2013-01-02 14:33:00,
2013-01-02 08:42:00,8.0,7.0,30.21,North,0,0.0,0.0,95,61.20,,,-99.99,,2013-01-02 14:42:00,
2013-01-02 08:53:00,9.0,8.0,30.21,WNW,288,1.0,3.0,94,61.20,,,-99.99,,2013-01-02 14:53:00,
2013-01-02 09:02:00,9.0,8.0,30.21,North,0,0.0,0.0,94,61.20,,,-99.99,,2013-01-02 15:02:00,
2013-01-02 09:12:00,9.0,8.0,30.21,North,0,0.0,0.0,94,61.20,,,-99.99,,2013-01-02 15:12:00,
2013-01-02 09:22:00,11.0,9.0,30.22,North,0,0.0,0.0,91,61.20,,,-99.99,,2013-01-02 15:22:00,
2013-01-02 09:33:00,12.0,10.0,30.22,WNW,285,0.0,3.0,91,61.20,,,-99.99,,2013-01-02 15:33:00,
2013-01-02 09:42:00,12.0,10.0,30.22,WNW,285,0.0,3.0,91,61.20,,,-99.99,,2013-01-02 15:42:00,
2013-01-02 09:53:00,13.0,10.0,30.23,WNW,301,2.0,4.0,88,61.20,,,-99.99,,2013-01-02 15:53:00,
2013-01-02 10:03:00,14.0,11.0,30.22,WSW,239,0.0,1.0,88,61.20,,,-99.99,,2013-01-02 16:03:00,
2013-01-02 10:12:00,14.0,11.0,30.22,WSW,239,0.0,1.0,88,61.20,,,-99.99,,2013-01-02 16:12:00,
2013-01-02 10:22:00,14.0,11.0,30.22,SW,228,0.0,3.0,86,61.20,,,-99.99,,2013-01-02 16:22:00,
2013-01-02 10:33:00,15.0,11.0,30.22,West,271,1.0,5.0,85,61.20,,,-99.99,,2013-01-02 16:33:00,
2013-01-02 10:42:00,15.0,11.0,30.22,West,271,1.0,5.0,85,61.20,,,-99.99,,2013-01-02 16:42:00,
2013-01-02 10:53:00,16.0,11.0,30.21,West,280,1.0,4.0,82,61.20,,,-99.99,,2013-01-02 16:53:00,
2013-01-02 11:03:00,17.0,12.0,30.21,WNW,287,1.0,5.0,80,61.20,,,-99.99,,2013-01-02 17:03:00,
2013-01-02 11:12:00,17.0,12.0,30.21,WNW,287,1.0,5.0,80,61.20,,,-99.99,,2013-01-02 17:12:00,
2013-01-02 11:22:00,17.0,12.0,30.19,SE,127,0.0,3.0,80,61.20,,,-99.99,,2013-01-02 17:22:00,
2013-01-02 11:33:00,18.0,11.0,30.19,WSW,239,1.0,5.0,75,61.20,,,-99.99,,2013-01-02 17:33:00,
2013-01-02 11:43:00,18.0,11.0,30.19,WSW,239,1.0,5.0,75,61.20,,,-99.99,,2013-01-02 17:43:00,
2013-01-02 11:53:00,19.0,12.0,30.18,West,262,1.0,5.0,75,61.20,,,-99.99,,2013-01-02 17:53:00,
2013-01-02 12:02:00,20.0,13.0,30.17,South,179,0.0,1.0,74,61.20,,,-99.99,,2013-01-02 18:02:00,
2013-01-02 12:12:00,20.0,13.0,30.17,South,179,0.0,1.0,74,61.20,,,-99.99,,2013-01-02 18:12:00,
2013-01-02 12:22:00,21.0,13.0,30.16,WNW,298,1.0,5.0,71,61.20,,,-99.99,,2013-01-02 18:22:00,
2013-01-02 12:33:00,21.0,13.0,30.15,SSW,208,1.0,5.0,70,61.20,,,-99.99,,2013-01-02 18:33:00,
2013-01-02 12:42:00,21.0,13.0,30.15,SSW,208,1.0,5.0,70,61.20,,,-99.99,,2013-01-02 18:42:00,
2013-01-02 12:53:00,22.0,14.0,30.14,West,276,1.0,3.0,70,61.20,,,-99.99,,2013-01-02 18:53:00,
2013-01-02 13:03:00,22.0,12.0,30.14,WNW,297,1.0,5.0,66,61.20,,,-99.99,,2013-01-02 19:03:00,
2013-01-02 13:12:00,22.0,12.0,30.14,WNW,297,1.0,5.0,66,61.20,,,-99.99,,2013-01-02 19:12:00,
2013-01-02 13:22:00,22.0,12.0,30.14,WNW,287,1.0,6.0,64,61.20,,,-99.99,,2013-01-02 19:22:00,
2013-01-02 13:32:00,22.0,13.0,30.14,WNW,293,1.0,5.0,67,61.20,,,-99.99,,2013-01-02 19:32:00,
2013-01-02 13:43:00,22.0,13.0,30.14,WNW,293,1.0,5.0,67,61.20,,,-99.99,,2013-01-02 19:43:00,
2013-01-02 13:52:00,22.0,13.0,30.13,SW,229,1.0,6.0,67,61.20,,,-99.99,,2013-01-02 19:52:00,
2013-01-02 14:02:00,22.0,13.0,30.14,West,264,1.0,6.0,68,61.20,,,-99.99,,2013-01-02 20:02:00,
2013-01-02 14:12:00,22.0,13.0,30.14,West,264,1.0,6.0,68,61.20,,,-99.99,,2013-01-02 20:12:00,
2013-01-02 14:23:00,22.0,12.0,30.14,SW,236,2.0,8.0,64,61.20,,,-99.99,,2013-01-02 20:23:00,
2013-01-02 14:33:00,22.0,12.0,30.14,SSW,205,2.0,7.0,64,61.20,,,-99.99,,2013-01-02 20:33:00,
2013-01-02 14:42:00,22.0,12.0,30.14,SSW,205,2.0,7.0,64,61.20,,,-99.99,,2013-01-02 20:42:00,
2013-01-02 14:53:00,21.0,12.0,30.14,SW,226,2.0,5.0,67,61.20,,,-99.99,,2013-01-02 20:53:00,
2013-01-02 15:03:00,21.0,12.0,30.15,SW,221,1.0,5.0,68,61.20,,,-99.99,,2013-01-02 21:03:00,
2013-01-02 15:12:00,21.0,12.0,30.15,SW,221,1.0,5.0,68,61.20,,,-99.99,,2013-01-02 21:12:00,
2013-01-02 15:22:00,21.0,12.0,30.15,West,259,2.0,5.0,69,61.20,,,-99.99,,2013-01-02 21:22:00,
2013-01-02 15:32:00,21.0,13.0,30.15,WSW,250,1.0,5.0,71,61.20,,,-99.99,,2013-01-02 21:32:00,
2013-01-02 15:42:00,21.0,13.0,30.15,WSW,250,1.0,5.0,71,61.20,,,-99.99,,2013-01-02 21:42:00,
2013-01-02 15:52:00,21.0,14.0,30.16,SW,232,0.0,3.0,73,61.20,,,-99.99,,2013-01-02 21:52:00,
2013-01-02 16:02:00,21.0,14.0,30.17,WNW,302,0.0,4.0,73,61.20,,,-99.99,,2013-01-02 22:02:00,
2013-01-02 16:12:00,21.0,14.0,30.17,WNW,302,0.0,4.0,73,61.20,,,-99.99,,2013-01-02 22:12:00,
2013-01-02 16:22:00,20.0,13.0,30.17,WSW,239,1.0,5.0,74,61.20,,,-99.99,,2013-01-02 22:22:00,
2013-01-02 16:32:00,20.0,13.0,30.17,NW,309,0.0,3.0,75,61.20,,,-99.99,,2013-01-02 22:32:00,
2013-01-02 16:42:00,20.0,13.0,30.17,NW,309,0.0,3.0,75,61.20,,,-99.99,,2013-01-02 22:42:00,
2013-01-02 16:52:00,20.0,13.0,30.17,West,278,1.0,6.0,74,61.20,,,-99.99,,2013-01-02 22:52:00,
2013-01-02 17:02:00,19.0,12.0,30.17,WSW,238,1.0,6.0,74,61.20,,,-99.99,,2013-01-02 23:02:00,
2013-01-02 17:12:00,19.0,12.0,30.17,WSW,238,1.0,6.0,74,61.20,,,-99.99,,2013-01-02 23:12:00,
2013-01-02 17:22:00,19.0,12.0,30.17,WSW,238,1.0,6.0,74,61.20,,,-99.99,,2013-01-02 23:22:00,
2013-01-02 17:33:00,19.0,12.0,30.17,West,270,1.0,4.0,74,61.20,,,-99.99,,2013-01-02 23:33:00,
2013-01-02 17:42:00,19.0,12.0,30.17,West,270,1.0,4.0,74,61.20,,,-99.99,,2013-01-02 23:42:00,
2013-01-02 17:53:00,19.0,12.0,30.17,WSW,252,0.0,3.0,75,61.20,,,-99.99,,2013-01-02 23:53:00,
2013-01-02 18:02:00,18.0,11.0,30.17,North,0,0.0,0.0,75,61.20,,,-99.99,,2013-01-03 00:02:00,
2013-01-02 18:12:00,18.0,11.0,30.17,North,0,0.0,0.0,75,61.20,,,-99.99,,2013-01-03 00:12:00,
2013-01-02 18:22:00,18.0,11.0,30.17,SSW,208,1.0,6.0,75,61.20,,,-99.99,,2013-01-03 00:22:00,
2013-01-02 18:37:00,17.0,11.0,30.16,North,0,0.0,0.0,77,61.20,,,-99.99,,2013-01-03 00:37:00,
2013-01-02 18:52:00,16.0,11.0,30.16,North,0,0.0,0.0,79,61.20,,,-99.99,,2013-01-03 00:52:00,
2013-01-02 19:02:00,16.0,11.0,30.16,North,0,0.0,0.0,79,61.20,,,-99.99,,2013-01-03 01:02:00,
2013-01-02 19:12:00,16.0,11.0,30.16,North,0,0.0,0.0,79,61.20,,,-99.99,,2013-01-03 01:12:00,
2013-01-02 19:22:00,17.0,12.0,30.16,SW,235,0.0,3.0,80,61.20,,,-99.99,,2013-01-03 01:22:00,
2013-01-02 19:32:00,18.0,13.0,30.16,SSW,203,1.0,7.0,79,61.20,,,-99.99,,2013-01-03 01:32:00,
2013-01-02 19:43:00,18.0,13.0,30.16,SSW,203,1.0,7.0,79,61.20,,,-99.99,,2013-01-03 01:43:00,
2013-01-02 19:52:00,19.0,13.0,30.16,West,274,1.0,9.0,77,61.20,,,-99.99,,2013-01-03 01:52:00,
2013-01-02 20:02:00,19.0,13.0,30.16,WSW,255,1.0,5.0,78,61.20,,,-99.99,,2013-01-03 02:02:00,
2013-01-02 20:12:00,19.0,13.0,30.16,WSW,255,1.0,5.0,78,61.20,,,-99.99,,2013-01-03 02:12:00,
2013-01-02 20:22:00,18.0,12.0,30.16,SW,219,1.0,6.0,78,61.20,,,-99.99,,2013-01-03 02:22:00,
2013-01-02 20:33:00,18.0,13.0,30.15,West,259,1.0,5.0,79,61.20,,,-99.99,,2013-01-03 02:33:00,
2013-01-02 20:42:00,18.0,13.0,30.15,West,259,1.0,5.0,79,61.20,,,-99.99,,2013-01-03 02:42:00,
2013-01-02 20:52:00,18.0,13.0,30.15,West,259,1.0,5.0,79,61.20,,,-99.99,,2013-01-03 02:52:00,
2013-01-02 21:12:00,18.0,13.0,30.15,WSW,240,1.0,5.0,80,61.20,,,-99.99,,2013-01-03 03:12:00,
2013-01-02 21:22:00,18.0,13.0,30.15,WSW,240,1.0,5.0,80,61.20,,,-99.99,,2013-01-03 03:22:00,
2013-01-02 21:46:00,17.0,12.0,30.15,SW,225,0.0,2.0,80,61.20,,,-99.99,,2013-01-03 03:46:00,
2013-01-02 21:52:00,17.0,12.0,30.15,SW,219,1.0,3.0,80,61.20,,,-99.99,,2013-01-03 03:52:00,
2013-01-02 22:02:00,17.0,12.0,30.15,SSW,194,1.0,3.0,80,61.20,,,-99.99,,2013-01-03 04:02:00,
2013-01-02 22:12:00,17.0,12.0,30.15,SSW,194,1.0,3.0,80,61.20,,,-99.99,,2013-01-03 04:12:00,
2013-01-02 22:22:00,17.0,12.0,30.15,WSW,246,1.0,4.0,80,61.20,,,-99.99,,2013-01-03 04:22:00,
2013-01-02 22:32:00,16.0,11.0,30.15,SW,226,1.0,5.0,81,61.20,,,-99.99,,2013-01-03 04:32:00,
2013-01-02 22:42:00,16.0,11.0,30.15,SW,226,1.0,5.0,81,61.20,,,-99.99,,2013-01-03 04:42:00,
2013-01-02 22:52:00,16.0,11.0,30.15,SSW,212,1.0,4.0,81,61.20,,,-99.99,,2013-01-03 04:52:00,
2013-01-02 23:03:00,15.0,11.0,30.15,South,183,0.0,2.0,83,61.20,,,-99.99,,2013-01-03 05:03:00,
2013-01-02 23:12:00,16.0,11.0,30.16,SW,236,0.0,3.0,82,61.20,,,-99.99,,2013-01-03 05:12:00,
2013-01-02 23:22:00,16.0,11.0,30.16,SW,236,0.0,3.0,82,61.20,,,-99.99,,2013-01-03 05:22:00,
2013-01-02 23:33:00,16.0,11.0,30.16,West,274,1.0,4.0,82,61.20,,,-99.99,,2013-01-03 05:33:00,
2013-01-02 23:42:00,16.0,11.0,30.16,West,274,1.0,4.0,82,61.20,,,-99.99,,2013-01-03 05:42:00,
2013-01-02 23:52:00,16.0,12.0,30.16,SW,219,1.0,3.0,83,61.20,,,-99.99,,2013-01-03 05:52:00,